Terminal Aerodrome Forecast
Issued by NWS Wilmington, OH

Current Version | Previous Version | Text Only | Print | Product List | Glossary Off
Versions: 1 2 3 4 5 6 7 8 9 10 11 12 13 14 15 16 17 18 19 20 21 22 23 24 25 26 27

220
FTUS41 KILN 061132
TAFCVG
TAF
KCVG 061132Z 0612/0718 06008KT 5SM RA BR OVC020
     FM061300 08006KT 5SM -RA BR OVC006
     FM061700 35004KT 3SM -RA BR OVC004
     FM062100 30012G20KT P6SM -DZ OVC010
     FM070200 29008KT P6SM OVC015
     FM071200 25005KT P6SM SCT015 BKN120=

USA.gov is the U.S. government's official web portal to all federal, state and local government web resources and services.